sensor_id;sensor_type;location;lat;lon;timestamp;temperature;humidity
23471;DHT22;11908;50.806;4.424;2023-07-13T00:01:28;17.50;99.90
23471;DHT22;11908;50.806;4.424;2023-07-13T00:03:54;17.50;99.90
23471;DHT22;11908;50.806;4.424;2023-07-13T00:06:20;17.40;99.90
23471;DHT22;11908;50.806;4.424;2023-07-13T00:08:46;17.40;99.90
23471;DHT22;11908;50.806;4.424;2023-07-13T00:11:13;17.40;99.90
23471;DHT22;11908;50.806;4.424;2023-07-13T00:13:40;17.50;99.90
23471;DHT22;11908;50.806;4.424;2023-07-13T00:16:07;17.40;99.90
23471;DHT22;11908;50.806;4.424;2023-07-13T00:18:32;17.40;99.90
23471;DHT22;11908;50.806;4.424;2023-07-13T00:20:58;17.40;99.90
23471;DHT22;11908;50.806;4.424;2023-07-13T00:23:35;17.40;99.90
23471;DHT22;11908;50.806;4.424;2023-07-13T00:26:02;17.30;99.90
23471;DHT22;11908;50.806;4.424;2023-07-13T00:28:30;17.20;99.90
23471;DHT22;11908;50.806;4.424;2023-07-13T00:30:56;17.10;99.90
23471;DHT22;11908;50.806;4.424;2023-07-13T00:33:22;17.20;99.90
23471;DHT22;11908;50.806;4.424;2023-07-13T00:35:48;17.10;99.90
23471;DHT22;11908;50.806;4.424;2023-07-13T00:38:14;17.10;99.90
23471;DHT22;11908;50.806;4.424;2023-07-13T00:40:40;17.10;99.90
23471;DHT22;11908;50.806;4.424;2023-07-13T00:43:21;17.00;99.90
23471;DHT22;11908;50.806;4.424;2023-07-13T00:48:20;17.00;99.90
23471;DHT22;11908;50.806;4.424;2023-07-13T00:50:49;16.90;99.90
23471;DHT22;11908;50.806;4.424;2023-07-13T00:53:17;16.90;99.90
23471;DHT22;11908;50.806;4.424;2023-07-13T00:55:43;16.90;99.90
23471;DHT22;11908;50.806;4.424;2023-07-13T00:58:09;17.00;99.90
23471;DHT22;11908;50.806;4.424;2023-07-13T01:00:38;17.00;99.90
23471;DHT22;11908;50.806;4.424;2023-07-13T01:03:04;17.00;99.90
23471;DHT22;11908;50.806;4.424;2023-07-13T01:05:32;16.90;99.90
23471;DHT22;11908;50.806;4.424;2023-07-13T01:07:59;16.90;99.90
23471;DHT22;11908;50.806;4.424;2023-07-13T01:10:26;16.90;99.90
23471;DHT22;11908;50.806;4.424;2023-07-13T01:12:53;16.80;99.90
23471;DHT22;11908;50.806;4.424;2023-07-13T01:15:39;16.80;99.90
23471;DHT22;11908;50.806;4.424;2023-07-13T01:18:09;16.80;99.90
23471;DHT22;11908;50.806;4.424;2023-07-13T01:20:36;16.70;99.90
23471;DHT22;11908;50.806;4.424;2023-07-13T01:23:10;16.60;99.90
23471;DHT22;11908;50.806;4.424;2023-07-13T01:25:37;16.60;99.90
23471;DHT22;11908;50.806;4.424;2023-07-13T01:28:05;16.70;99.90
23471;DHT22;11908;50.806;4.424;2023-07-13T01:30:31;16.70;99.90
23471;DHT22;11908;50.806;4.424;2023-07-13T01:32:57;16.80;99.90
23471;DHT22;11908;50.806;4.424;2023-07-13T01:35:23;16.80;99.90
23471;DHT22;11908;50.806;4.424;2023-07-13T01:37:51;16.80;99.90
23471;DHT22;11908;50.806;4.424;2023-07-13T01:40:16;16.80;99.90
23471;DHT22;11908;50.806;4.424;2023-07-13T01:42:42;16.70;99.90
23471;DHT22;11908;50.806;4.424;2023-07-13T01:45:08;16.70;99.90
23471;DHT22;11908;50.806;4.424;2023-07-13T01:47:34;16.70;99.90
23471;DHT22;11908;50.806;4.424;2023-07-13T01:49:59;16.60;99.90
23471;DHT22;11908;50.806;4.424;2023-07-13T01:52:25;16.70;99.90
23471;DHT22;11908;50.806;4.424;2023-07-13T01:54:51;16.60;99.90
23471;DHT22;11908;50.806;4.424;2023-07-13T01:57:17;16.70;99.90
23471;DHT22;11908;50.806;4.424;2023-07-13T01:59:42;16.70;99.90
23471;DHT22;11908;50.806;4.424;2023-07-13T02:02:08;16.60;99.90
23471;DHT22;11908;50.806;4.424;2023-07-13T02:04:34;16.60;99.90
23471;DHT22;11908;50.806;4.424;2023-07-13T02:06:59;16.50;99.90
23471;DHT22;11908;50.806;4.424;2023-07-13T02:09:25;16.60;99.90
23471;DHT22;11908;50.806;4.424;2023-07-13T02:11:51;16.60;99.90
23471;DHT22;11908;50.806;4.424;2023-07-13T02:14:17;16.50;99.90
23471;DHT22;11908;50.806;4.424;2023-07-13T02:16:44;16.50;99.90
23471;DHT22;11908;50.806;4.424;2023-07-13T02:19:10;16.40;99.90
23471;DHT22;11908;50.806;4.424;2023-07-13T02:21:36;16.40;99.90
23471;DHT22;11908;50.806;4.424;2023-07-13T02:24:01;16.40;99.90
23471;DHT22;11908;50.806;4.424;2023-07-13T02:26:28;16.30;99.90
23471;DHT22;11908;50.806;4.424;2023-07-13T02:28:53;16.40;99.90
23471;DHT22;11908;50.806;4.424;2023-07-13T02:31:19;16.40;99.90
23471;DHT22;11908;50.806;4.424;2023-07-13T02:33:45;16.30;99.90
23471;DHT22;11908;50.806;4.424;2023-07-13T02:36:11;16.30;99.90
23471;DHT22;11908;50.806;4.424;2023-07-13T02:38:37;16.40;99.90
23471;DHT22;11908;50.806;4.424;2023-07-13T02:41:04;16.30;99.90
23471;DHT22;11908;50.806;4.424;2023-07-13T02:43:30;16.30;99.90
23471;DHT22;11908;50.806;4.424;2023-07-13T02:45:56;16.10;99.90
23471;DHT22;11908;50.806;4.424;2023-07-13T02:48:22;16.10;99.90
23471;DHT22;11908;50.806;4.424;2023-07-13T02:50:47;16.10;99.90
23471;DHT22;11908;50.806;4.424;2023-07-13T02:53:13;16.10;99.90
23471;DHT22;11908;50.806;4.424;2023-07-13T02:55:38;16.10;99.90
23471;DHT22;11908;50.806;4.424;2023-07-13T02:58:06;16.20;99.90
23471;DHT22;11908;50.806;4.424;2023-07-13T03:00:32;16.20;99.90
23471;DHT22;11908;50.806;4.424;2023-07-13T03:02:58;16.20;99.90
23471;DHT22;11908;50.806;4.424;2023-07-13T03:05:24;16.10;99.90
23471;DHT22;11908;50.806;4.424;2023-07-13T03:07:49;16.10;99.90
23471;DHT22;11908;50.806;4.424;2023-07-13T03:10:15;16.20;99.90
23471;DHT22;11908;50.806;4.424;2023-07-13T03:12:42;16.10;99.90
23471;DHT22;11908;50.806;4.424;2023-07-13T03:15:08;15.90;99.90
23471;DHT22;11908;50.806;4.424;2023-07-13T03:17:33;16.00;99.90
23471;DHT22;11908;50.806;4.424;2023-07-13T03:19:59;16.10;99.90
23471;DHT22;11908;50.806;4.424;2023-07-13T03:22:25;16.10;99.90
23471;DHT22;11908;50.806;4.424;2023-07-13T03:24:50;16.00;99.90
23471;DHT22;11908;50.806;4.424;2023-07-13T03:27:18;16.00;99.90
23471;DHT22;11908;50.806;4.424;2023-07-13T03:29:43;16.00;99.90
23471;DHT22;11908;50.806;4.424;2023-07-13T03:32:09;16.10;99.90
23471;DHT22;11908;50.806;4.424;2023-07-13T03:34:35;16.10;99.90
23471;DHT22;11908;50.806;4.424;2023-07-13T03:37:01;16.10;99.90
23471;DHT22;11908;50.806;4.424;2023-07-13T03:39:27;16.00;99.90
23471;DHT22;11908;50.806;4.424;2023-07-13T03:41:52;15.90;99.90
23471;DHT22;11908;50.806;4.424;2023-07-13T03:44:18;15.80;99.90
23471;DHT22;11908;50.806;4.424;2023-07-13T03:46:45;15.70;99.90
23471;DHT22;11908;50.806;4.424;2023-07-13T03:49:11;15.90;99.90
23471;DHT22;11908;50.806;4.424;2023-07-13T03:51:37;15.90;99.90
23471;DHT22;11908;50.806;4.424;2023-07-13T03:54:03;15.80;99.90
23471;DHT22;11908;50.806;4.424;2023-07-13T03:56:29;15.90;99.90
23471;DHT22;11908;50.806;4.424;2023-07-13T03:58:56;15.90;99.90
23471;DHT22;11908;50.806;4.424;2023-07-13T04:01:23;15.90;99.90
23471;DHT22;11908;50.806;4.424;2023-07-13T04:03:50;16.00;99.90
23471;DHT22;11908;50.806;4.424;2023-07-13T04:06:22;16.00;99.90
23471;DHT22;11908;50.806;4.424;2023-07-13T04:08:52;16.10;99.90
23471;DHT22;11908;50.806;4.424;2023-07-13T04:11:19;16.00;99.90
23471;DHT22;11908;50.806;4.424;2023-07-13T04:13:46;16.10;99.90
23471;DHT22;11908;50.806;4.424;2023-07-13T04:16:13;16.30;99.90
23471;DHT22;11908;50.806;4.424;2023-07-13T04:18:39;16.30;99.90
23471;DHT22;11908;50.806;4.424;2023-07-13T04:21:04;16.40;99.90
23471;DHT22;11908;50.806;4.424;2023-07-13T04:23:30;16.40;99.90
23471;DHT22;11908;50.806;4.424;2023-07-13T04:25:56;16.40;99.90
23471;DHT22;11908;50.806;4.424;2023-07-13T04:28:22;16.40;99.90
23471;DHT22;11908;50.806;4.424;2023-07-13T04:30:49;16.50;99.90
23471;DHT22;11908;50.806;4.424;2023-07-13T04:33:15;16.50;99.90
23471;DHT22;11908;50.806;4.424;2023-07-13T04:35:42;16.60;99.90
23471;DHT22;11908;50.806;4.424;2023-07-13T04:38:08;16.60;99.90
23471;DHT22;11908;50.806;4.424;2023-07-13T04:40:37;16.50;99.90
23471;DHT22;11908;50.806;4.424;2023-07-13T04:43:03;16.50;99.90
23471;DHT22;11908;50.806;4.424;2023-07-13T04:45:29;16.60;99.90
23471;DHT22;11908;50.806;4.424;2023-07-13T04:47:56;16.70;99.90
23471;DHT22;11908;50.806;4.424;2023-07-13T04:50:22;16.80;99.90
23471;DHT22;11908;50.806;4.424;2023-07-13T04:52:50;16.90;99.90
23471;DHT22;11908;50.806;4.424;2023-07-13T04:55:17;17.00;99.90
23471;DHT22;11908;50.806;4.424;2023-07-13T04:57:43;17.20;99.90
23471;DHT22;11908;50.806;4.424;2023-07-13T05:00:09;17.10;99.90
23471;DHT22;11908;50.806;4.424;2023-07-13T05:02:38;17.10;99.90
23471;DHT22;11908;50.806;4.424;2023-07-13T05:05:04;17.10;99.90
23471;DHT22;11908;50.806;4.424;2023-07-13T05:07:30;17.20;99.90
23471;DHT22;11908;50.806;4.424;2023-07-13T05:09:58;17.30;99.90
23471;DHT22;11908;50.806;4.424;2023-07-13T05:12:25;17.30;99.90
23471;DHT22;11908;50.806;4.424;2023-07-13T05:14:50;17.30;99.90
23471;DHT22;11908;50.806;4.424;2023-07-13T05:17:16;17.30;99.90
23471;DHT22;11908;50.806;4.424;2023-07-13T05:19:42;17.30;99.90
23471;DHT22;11908;50.806;4.424;2023-07-13T05:22:07;17.30;99.90
23471;DHT22;11908;50.806;4.424;2023-07-13T05:24:33;17.40;99.90
23471;DHT22;11908;50.806;4.424;2023-07-13T05:26:59;17.30;99.90
23471;DHT22;11908;50.806;4.424;2023-07-13T05:29:25;17.40;99.90
23471;DHT22;11908;50.806;4.424;2023-07-13T05:31:50;17.40;99.90
23471;DHT22;11908;50.806;4.424;2023-07-13T05:34:16;17.60;99.90
23471;DHT22;11908;50.806;4.424;2023-07-13T05:36:42;17.70;99.90
23471;DHT22;11908;50.806;4.424;2023-07-13T05:39:08;17.60;99.90
23471;DHT22;11908;50.806;4.424;2023-07-13T05:41:34;17.60;99.90
23471;DHT22;11908;50.806;4.424;2023-07-13T05:43:59;17.70;99.90
23471;DHT22;11908;50.806;4.424;2023-07-13T05:46:25;17.70;99.90
23471;DHT22;11908;50.806;4.424;2023-07-13T05:48:51;17.80;99.90
23471;DHT22;11908;50.806;4.424;2023-07-13T05:51:16;17.90;99.90
23471;DHT22;11908;50.806;4.424;2023-07-13T05:53:42;17.90;99.90
23471;DHT22;11908;50.806;4.424;2023-07-13T05:56:08;17.80;99.90
23471;DHT22;11908;50.806;4.424;2023-07-13T05:58:33;17.70;99.90
23471;DHT22;11908;50.806;4.424;2023-07-13T06:01:05;17.50;99.90
23471;DHT22;11908;50.806;4.424;2023-07-13T06:03:32;17.60;99.90
23471;DHT22;11908;50.806;4.424;2023-07-13T06:05:58;17.80;99.90
23471;DHT22;11908;50.806;4.424;2023-07-13T06:08:26;18.10;99.90
23471;DHT22;11908;50.806;4.424;2023-07-13T06:10:51;18.00;99.90
23471;DHT22;11908;50.806;4.424;2023-07-13T06:13:17;18.00;99.90
23471;DHT22;11908;50.806;4.424;2023-07-13T06:15:50;18.10;99.90
23471;DHT22;11908;50.806;4.424;2023-07-13T06:18:16;18.20;99.90
23471;DHT22;11908;50.806;4.424;2023-07-13T06:20:42;18.40;99.90
23471;DHT22;11908;50.806;4.424;2023-07-13T06:23:08;18.50;99.90
23471;DHT22;11908;50.806;4.424;2023-07-13T06:25:33;18.70;99.90
23471;DHT22;11908;50.806;4.424;2023-07-13T06:27:59;18.80;99.90
23471;DHT22;11908;50.806;4.424;2023-07-13T06:30:26;19.00;99.90
23471;DHT22;11908;50.806;4.424;2023-07-13T06:32:52;19.10;99.90
23471;DHT22;11908;50.806;4.424;2023-07-13T06:35:17;19.30;99.90
23471;DHT22;11908;50.806;4.424;2023-07-13T06:37:43;19.40;99.90
23471;DHT22;11908;50.806;4.424;2023-07-13T06:40:09;19.50;99.90
23471;DHT22;11908;50.806;4.424;2023-07-13T06:42:35;19.70;99.90
23471;DHT22;11908;50.806;4.424;2023-07-13T06:45:01;19.80;99.90
23471;DHT22;11908;50.806;4.424;2023-07-13T06:47:27;19.60;99.90
23471;DHT22;11908;50.806;4.424;2023-07-13T06:49:52;19.50;99.90
23471;DHT22;11908;50.806;4.424;2023-07-13T06:52:18;19.70;99.90
23471;DHT22;11908;50.806;4.424;2023-07-13T06:54:44;19.80;99.90
23471;DHT22;11908;50.806;4.424;2023-07-13T06:57:09;20.10;99.90
23471;DHT22;11908;50.806;4.424;2023-07-13T06:59:35;20.40;99.90
23471;DHT22;11908;50.806;4.424;2023-07-13T07:02:01;20.30;99.90
23471;DHT22;11908;50.806;4.424;2023-07-13T07:04:26;20.10;99.90
23471;DHT22;11908;50.806;4.424;2023-07-13T07:06:52;20.00;99.90
23471;DHT22;11908;50.806;4.424;2023-07-13T07:09:18;20.30;99.90
23471;DHT22;11908;50.806;4.424;2023-07-13T07:11:44;20.50;99.90
23471;DHT22;11908;50.806;4.424;2023-07-13T07:14:09;20.70;99.90
23471;DHT22;11908;50.806;4.424;2023-07-13T07:16:35;20.50;99.90
23471;DHT22;11908;50.806;4.424;2023-07-13T07:19:01;20.40;99.90
23471;DHT22;11908;50.806;4.424;2023-07-13T07:21:27;20.40;99.90
23471;DHT22;11908;50.806;4.424;2023-07-13T07:23:53;20.50;99.90
23471;DHT22;11908;50.806;4.424;2023-07-13T07:26:19;20.60;99.90
23471;DHT22;11908;50.806;4.424;2023-07-13T07:28:45;20.60;99.90
23471;DHT22;11908;50.806;4.424;2023-07-13T07:31:11;20.70;99.90
23471;DHT22;11908;50.806;4.424;2023-07-13T07:33:36;20.60;99.90
23471;DHT22;11908;50.806;4.424;2023-07-13T07:36:02;20.70;99.90
23471;DHT22;11908;50.806;4.424;2023-07-13T07:38:28;21.00;99.90
23471;DHT22;11908;50.806;4.424;2023-07-13T07:40:54;21.60;99.90
23471;DHT22;11908;50.806;4.424;2023-07-13T07:43:20;21.80;99.90
23471;DHT22;11908;50.806;4.424;2023-07-13T07:45:46;22.10;99.90
23471;DHT22;11908;50.806;4.424;2023-07-13T07:48:12;22.40;99.90
23471;DHT22;11908;50.806;4.424;2023-07-13T07:50:38;22.30;99.90
23471;DHT22;11908;50.806;4.424;2023-07-13T07:53:04;22.20;99.90
23471;DHT22;11908;50.806;4.424;2023-07-13T07:55:33;22.10;99.90
23471;DHT22;11908;50.806;4.424;2023-07-13T07:57:59;22.40;99.90
23471;DHT22;11908;50.806;4.424;2023-07-13T08:00:25;23.30;99.90
23471;DHT22;11908;50.806;4.424;2023-07-13T08:02:50;24.00;99.90
23471;DHT22;11908;50.806;4.424;2023-07-13T08:05:16;24.90;99.90
23471;DHT22;11908;50.806;4.424;2023-07-13T08:07:42;25.70;99.90
23471;DHT22;11908;50.806;4.424;2023-07-13T08:10:08;26.40;99.90
23471;DHT22;11908;50.806;4.424;2023-07-13T08:12:37;26.10;99.90
23471;DHT22;11908;50.806;4.424;2023-07-13T08:15:04;26.30;99.90
23471;DHT22;11908;50.806;4.424;2023-07-13T08:17:30;26.80;99.90
23471;DHT22;11908;50.806;4.424;2023-07-13T08:19:56;26.70;99.90
23471;DHT22;11908;50.806;4.424;2023-07-13T08:22:21;27.10;99.90
23471;DHT22;11908;50.806;4.424;2023-07-13T08:24:47;28.10;99.90
23471;DHT22;11908;50.806;4.424;2023-07-13T08:27:20;27.20;99.90
23471;DHT22;11908;50.806;4.424;2023-07-13T08:29:47;27.10;99.90
23471;DHT22;11908;50.806;4.424;2023-07-13T08:32:13;26.80;99.90
23471;DHT22;11908;50.806;4.424;2023-07-13T08:34:39;26.60;99.90
23471;DHT22;11908;50.806;4.424;2023-07-13T08:37:05;27.00;99.90
23471;DHT22;11908;50.806;4.424;2023-07-13T08:39:32;26.80;99.90
23471;DHT22;11908;50.806;4.424;2023-07-13T08:42:12;26.90;99.90
23471;DHT22;11908;50.806;4.424;2023-07-13T08:45:04;27.30;99.90
23471;DHT22;11908;50.806;4.424;2023-07-13T08:47:33;28.70;99.90
23471;DHT22;11908;50.806;4.424;2023-07-13T08:50:02;29.40;99.90
23471;DHT22;11908;50.806;4.424;2023-07-13T08:52:42;30.50;99.90
23471;DHT22;11908;50.806;4.424;2023-07-13T08:55:21;29.50;99.90
23471;DHT22;11908;50.806;4.424;2023-07-13T08:58:01;28.80;99.90
23471;DHT22;11908;50.806;4.424;2023-07-13T09:00:38;27.90;99.90
23471;DHT22;11908;50.806;4.424;2023-07-13T09:03:16;28.10;99.90
23471;DHT22;11908;50.806;4.424;2023-07-13T09:05:56;28.10;99.90
23471;DHT22;11908;50.806;4.424;2023-07-13T09:08:50;28.70;99.90
23471;DHT22;11908;50.806;4.424;2023-07-13T09:16:41;27.50;99.90
23471;DHT22;11908;50.806;4.424;2023-07-13T09:19:13;27.40;99.90
23471;DHT22;11908;50.806;4.424;2023-07-13T09:21:42;28.70;99.90
23471;DHT22;11908;50.806;4.424;2023-07-13T09:26:57;29.20;99.90
23471;DHT22;11908;50.806;4.424;2023-07-13T09:29:32;28.90;99.90
23471;DHT22;11908;50.806;4.424;2023-07-13T09:32:03;28.70;99.90
23471;DHT22;11908;50.806;4.424;2023-07-13T09:34:29;28.50;99.90
23471;DHT22;11908;50.806;4.424;2023-07-13T09:36:56;28.40;99.90
23471;DHT22;11908;50.806;4.424;2023-07-13T09:39:27;28.40;99.90
23471;DHT22;11908;50.806;4.424;2023-07-13T09:44:38;27.30;99.90
23471;DHT22;11908;50.806;4.424;2023-07-13T09:47:39;27.40;99.90
23471;DHT22;11908;50.806;4.424;2023-07-13T09:50:14;27.50;99.90
23471;DHT22;11908;50.806;4.424;2023-07-13T09:52:48;27.80;99.90
23471;DHT22;11908;50.806;4.424;2023-07-13T09:55:36;27.90;99.90
23471;DHT22;11908;50.806;4.424;2023-07-13T09:58:12;28.10;99.90
23471;DHT22;11908;50.806;4.424;2023-07-13T10:00:38;28.70;99.90
23471;DHT22;11908;50.806;4.424;2023-07-13T10:03:24;28.30;99.90
23471;DHT22;11908;50.806;4.424;2023-07-13T10:05:51;28.50;99.90
23471;DHT22;11908;50.806;4.424;2023-07-13T10:08:21;29.30;99.90
23471;DHT22;11908;50.806;4.424;2023-07-13T10:10:52;28.80;99.90
23471;DHT22;11908;50.806;4.424;2023-07-13T10:13:31;28.00;99.90
23471;DHT22;11908;50.806;4.424;2023-07-13T10:15:59;27.90;99.90
23471;DHT22;11908;50.806;4.424;2023-07-13T10:18:25;27.20;99.90
23471;DHT22;11908;50.806;4.424;2023-07-13T10:21:11;26.50;99.90
23471;DHT22;11908;50.806;4.424;2023-07-13T10:23:37;27.00;99.90
23471;DHT22;11908;50.806;4.424;2023-07-13T10:26:05;27.80;99.90
23471;DHT22;11908;50.806;4.424;2023-07-13T10:28:38;27.60;99.90
23471;DHT22;11908;50.806;4.424;2023-07-13T10:31:12;27.20;99.90
23471;DHT22;11908;50.806;4.424;2023-07-13T10:33:38;27.30;99.90
23471;DHT22;11908;50.806;4.424;2023-07-13T10:38:39;28.40;99.90
23471;DHT22;11908;50.806;4.424;2023-07-13T10:41:11;29.00;99.90
23471;DHT22;11908;50.806;4.424;2023-07-13T10:43:44;28.70;99.90
23471;DHT22;11908;50.806;4.424;2023-07-13T10:46:14;28.80;99.90
23471;DHT22;11908;50.806;4.424;2023-07-13T10:48:42;29.50;99.90
23471;DHT22;11908;50.806;4.424;2023-07-13T10:51:10;29.60;99.90
23471;DHT22;11908;50.806;4.424;2023-07-13T10:53:38;28.80;99.90
23471;DHT22;11908;50.806;4.424;2023-07-13T10:58:45;27.70;99.90
23471;DHT22;11908;50.806;4.424;2023-07-13T11:01:16;27.60;99.90
23471;DHT22;11908;50.806;4.424;2023-07-13T11:03:50;27.60;99.90
23471;DHT22;11908;50.806;4.424;2023-07-13T11:14:02;27.30;99.90
23471;DHT22;11908;50.806;4.424;2023-07-13T11:16:45;27.30;99.90
23471;DHT22;11908;50.806;4.424;2023-07-13T11:22:09;28.50;99.90
23471;DHT22;11908;50.806;4.424;2023-07-13T11:33:58;28.30;99.90
23471;DHT22;11908;50.806;4.424;2023-07-13T11:36:14;28.00;99.90
23471;DHT22;11908;50.806;4.424;2023-07-13T11:38:48;28.70;99.90
23471;DHT22;11908;50.806;4.424;2023-07-13T11:41:34;28.70;99.90
23471;DHT22;11908;50.806;4.424;2023-07-13T11:46:48;27.90;99.90
23471;DHT22;11908;50.806;4.424;2023-07-13T11:49:16;26.60;99.90
23471;DHT22;11908;50.806;4.424;2023-07-13T11:51:43;26.30;99.90
23471;DHT22;11908;50.806;4.424;2023-07-13T11:54:28;26.20;99.90
23471;DHT22;11908;50.806;4.424;2023-07-13T11:56:58;26.40;99.90
23471;DHT22;11908;50.806;4.424;2023-07-13T11:59:27;25.70;99.90
23471;DHT22;11908;50.806;4.424;2023-07-13T12:01:54;25.10;99.90
23471;DHT22;11908;50.806;4.424;2023-07-13T12:04:31;25.00;99.90
23471;DHT22;11908;50.806;4.424;2023-07-13T12:07:04;25.30;99.90
23471;DHT22;11908;50.806;4.424;2023-07-13T12:09:30;25.40;99.90
23471;DHT22;11908;50.806;4.424;2023-07-13T12:11:57;25.10;99.90
23471;DHT22;11908;50.806;4.424;2023-07-13T12:14:24;24.80;99.90
23471;DHT22;11908;50.806;4.424;2023-07-13T12:16:52;24.80;99.90
23471;DHT22;11908;50.806;4.424;2023-07-13T12:19:28;24.90;99.90
23471;DHT22;11908;50.806;4.424;2023-07-13T12:21:56;24.60;99.90
23471;DHT22;11908;50.806;4.424;2023-07-13T12:24:23;24.80;99.90
23471;DHT22;11908;50.806;4.424;2023-07-13T12:27:00;25.20;99.90
23471;DHT22;11908;50.806;4.424;2023-07-13T12:29:27;25.40;99.90
23471;DHT22;11908;50.806;4.424;2023-07-13T12:31:53;25.70;99.90
23471;DHT22;11908;50.806;4.424;2023-07-13T12:34:23;26.10;99.90
23471;DHT22;11908;50.806;4.424;2023-07-13T12:36:59;26.00;99.90
23471;DHT22;11908;50.806;4.424;2023-07-13T12:39:44;25.30;99.90
23471;DHT22;11908;50.806;4.424;2023-07-13T12:42:25;25.20;99.90
23471;DHT22;11908;50.806;4.424;2023-07-13T12:45:16;25.10;99.90
23471;DHT22;11908;50.806;4.424;2023-07-13T12:47:46;25.00;99.90
23471;DHT22;11908;50.806;4.424;2023-07-13T12:50:20;24.90;99.90
23471;DHT22;11908;50.806;4.424;2023-07-13T12:52:54;24.80;99.90
23471;DHT22;11908;50.806;4.424;2023-07-13T12:55:22;24.50;99.90
23471;DHT22;11908;50.806;4.424;2023-07-13T13:00:32;23.40;99.90
23471;DHT22;11908;50.806;4.424;2023-07-13T13:03:02;23.10;99.90
23471;DHT22;11908;50.806;4.424;2023-07-13T13:05:30;22.80;99.90
23471;DHT22;11908;50.806;4.424;2023-07-13T13:07:56;22.40;99.90
23471;DHT22;11908;50.806;4.424;2023-07-13T13:10:21;22.10;99.90
23471;DHT22;11908;50.806;4.424;2023-07-13T13:12:47;22.20;99.90
23471;DHT22;11908;50.806;4.424;2023-07-13T13:15:13;22.30;99.90
23471;DHT22;11908;50.806;4.424;2023-07-13T13:17:40;22.70;99.90
23471;DHT22;11908;50.806;4.424;2023-07-13T13:20:32;23.40;99.90
23471;DHT22;11908;50.806;4.424;2023-07-13T13:22:57;24.20;99.90
23471;DHT22;11908;50.806;4.424;2023-07-13T13:25:23;24.50;99.90
23471;DHT22;11908;50.806;4.424;2023-07-13T13:27:49;24.10;99.90
23471;DHT22;11908;50.806;4.424;2023-07-13T13:30:17;24.40;99.90
23471;DHT22;11908;50.806;4.424;2023-07-13T13:32:45;24.20;99.90
23471;DHT22;11908;50.806;4.424;2023-07-13T13:35:17;24.20;99.90
23471;DHT22;11908;50.806;4.424;2023-07-13T13:37:43;24.30;99.90
23471;DHT22;11908;50.806;4.424;2023-07-13T13:40:21;24.20;99.90
23471;DHT22;11908;50.806;4.424;2023-07-13T13:42:48;24.50;99.90
23471;DHT22;11908;50.806;4.424;2023-07-13T13:45:14;25.00;99.90
23471;DHT22;11908;50.806;4.424;2023-07-13T13:47:43;25.20;99.90
23471;DHT22;11908;50.806;4.424;2023-07-13T13:50:15;25.60;99.90
23471;DHT22;11908;50.806;4.424;2023-07-13T13:52:42;25.80;99.90
23471;DHT22;11908;50.806;4.424;2023-07-13T13:55:21;25.70;99.90
23471;DHT22;11908;50.806;4.424;2023-07-13T13:57:49;25.90;99.90
23471;DHT22;11908;50.806;4.424;2023-07-13T14:00:16;26.00;99.90
23471;DHT22;11908;50.806;4.424;2023-07-13T14:02:45;26.10;99.90
23471;DHT22;11908;50.806;4.424;2023-07-13T14:05:21;26.10;99.90
23471;DHT22;11908;50.806;4.424;2023-07-13T14:07:47;26.00;99.90
23471;DHT22;11908;50.806;4.424;2023-07-13T14:10:15;25.80;99.90
23471;DHT22;11908;50.806;4.424;2023-07-13T14:12:52;25.60;99.90
23471;DHT22;11908;50.806;4.424;2023-07-13T14:17:50;25.00;99.90
23471;DHT22;11908;50.806;4.424;2023-07-13T14:20:17;25.30;99.90
23471;DHT22;11908;50.806;4.424;2023-07-13T14:22:42;25.20;99.90
23471;DHT22;11908;50.806;4.424;2023-07-13T14:25:12;24.80;99.90
23471;DHT22;11908;50.806;4.424;2023-07-13T14:27:43;24.30;99.90
23471;DHT22;11908;50.806;4.424;2023-07-13T14:30:18;24.20;99.90
23471;DHT22;11908;50.806;4.424;2023-07-13T14:32:44;24.00;99.90
23471;DHT22;11908;50.806;4.424;2023-07-13T14:35:15;24.00;99.90
23471;DHT22;11908;50.806;4.424;2023-07-13T14:37:42;23.80;99.90
23471;DHT22;11908;50.806;4.424;2023-07-13T14:40:21;23.60;99.90
23471;DHT22;11908;50.806;4.424;2023-07-13T14:42:50;23.50;99.90
23471;DHT22;11908;50.806;4.424;2023-07-13T14:45:18;23.20;99.90
23471;DHT22;11908;50.806;4.424;2023-07-13T14:47:44;23.20;99.90
23471;DHT22;11908;50.806;4.424;2023-07-13T14:50:16;23.10;99.90
23471;DHT22;11908;50.806;4.424;2023-07-13T14:52:42;23.00;99.90
23471;DHT22;11908;50.806;4.424;2023-07-13T14:55:18;23.20;99.90
23471;DHT22;11908;50.806;4.424;2023-07-13T14:57:44;23.50;99.90
23471;DHT22;11908;50.806;4.424;2023-07-13T15:00:15;23.70;99.90
23471;DHT22;11908;50.806;4.424;2023-07-13T15:02:45;24.00;99.90
23471;DHT22;11908;50.806;4.424;2023-07-13T15:05:19;24.00;99.90
23471;DHT22;11908;50.806;4.424;2023-07-13T15:07:46;24.10;99.90
23471;DHT22;11908;50.806;4.424;2023-07-13T15:10:20;24.30;99.90
23471;DHT22;11908;50.806;4.424;2023-07-13T15:12:46;24.50;99.90
23471;DHT22;11908;50.806;4.424;2023-07-13T15:15:12;24.70;99.90
23471;DHT22;11908;50.806;4.424;2023-07-13T15:17:43;24.80;99.90
23471;DHT22;11908;50.806;4.424;2023-07-13T15:20:21;24.80;99.90
23471;DHT22;11908;50.806;4.424;2023-07-13T15:22:48;24.70;99.90
23471;DHT22;11908;50.806;4.424;2023-07-13T15:25:20;24.70;99.90
23471;DHT22;11908;50.806;4.424;2023-07-13T15:27:46;24.70;99.90
23471;DHT22;11908;50.806;4.424;2023-07-13T15:30:14;24.90;99.90
23471;DHT22;11908;50.806;4.424;2023-07-13T15:32:41;25.20;99.90
23471;DHT22;11908;50.806;4.424;2023-07-13T15:35:20;25.00;99.90
23471;DHT22;11908;50.806;4.424;2023-07-13T15:37:47;24.60;99.90
23471;DHT22;11908;50.806;4.424;2023-07-13T15:40:14;24.50;99.90
23471;DHT22;11908;50.806;4.424;2023-07-13T15:42:44;24.60;99.90
23471;DHT22;11908;50.806;4.424;2023-07-13T15:45:30;24.60;99.90
23471;DHT22;11908;50.806;4.424;2023-07-13T15:47:56;24.50;99.90
23471;DHT22;11908;50.806;4.424;2023-07-13T15:50:24;24.50;99.90
23471;DHT22;11908;50.806;4.424;2023-07-13T15:52:52;24.20;99.90
23471;DHT22;11908;50.806;4.424;2023-07-13T15:55:19;24.20;99.90
23471;DHT22;11908;50.806;4.424;2023-07-13T15:57:47;24.00;99.90
23471;DHT22;11908;50.806;4.424;2023-07-13T16:00:25;23.90;99.90
23471;DHT22;11908;50.806;4.424;2023-07-13T16:02:51;24.10;99.90
23471;DHT22;11908;50.806;4.424;2023-07-13T16:05:18;24.20;99.90
23471;DHT22;11908;50.806;4.424;2023-07-13T16:07:46;24.30;99.90
23471;DHT22;11908;50.806;4.424;2023-07-13T16:10:17;24.30;99.90
23471;DHT22;11908;50.806;4.424;2023-07-13T16:12:44;24.20;99.90
23471;DHT22;11908;50.806;4.424;2023-07-13T16:15:16;23.70;99.90
23471;DHT22;11908;50.806;4.424;2023-07-13T16:17:44;23.60;99.90
23471;DHT22;11908;50.806;4.424;2023-07-13T16:20:10;23.60;99.90
23471;DHT22;11908;50.806;4.424;2023-07-13T16:22:37;23.60;99.90
23471;DHT22;11908;50.806;4.424;2023-07-13T16:25:24;23.80;99.90